Aérodrome :
LOGIN :

S'inscrire | Disclaimer

   EN    FR    IT 

 










Légende :    VFR   VFR Marginal   IFR   IFR Intensif   IFR Très Intensif
Visi : 
Plafond : 
>= 8 km
>= 3000ft
5 à 8 km
1000 à 3000 ft
1500m à 5 km
500 à 1000 ft
800 à 1500m
200 à 500 ft
< 800m
< 200 ft
Symboles :   Orages  Brouillard  Fortes neiges  Fortes précipitations  Vent > 20 kt
SIGMETs :   Divers  Orages  Givrage  Turbulence  Onde Orograph.  Cendres Volcan.






- Altitude de l'aérodrome : 28 ft
- Code IATA : SOZ


LFKS - Solenzara

DERNIER METAR :
  • 270530Z AUTO 27012KT 230V310 CAVOK 11/M05 Q1012

METARs EXPIRÉS :
  • 270500Z AUTO 27012KT 230V320 CAVOK 11/M05 Q1012
  • 270430Z AUTO 27011KT 240V310 CAVOK 11/M06 Q1012
  • 270400Z AUTO 26011KT 220V320 CAVOK 11/M06 Q1012
  • 270330Z AUTO 27015G28KT 230V300 CAVOK 11/M05 Q1012
  • 270300Z AUTO 27013KT 230V310 CAVOK 11/M06 Q1012

TAF TAF LFKS
Valide du 27 à 05h jusqu'au 28 à 03h UTC


270200Z 2705/2803 27015G25KT 9999 FEW030
TEMPO 2718/2803 27020G40KT



MET'MAP, la Météo Aéronautique d'un coup d'oeil ! - Copyright ORBIFLY Décembre 2007 - Disclaimer

ORBIFLY MET'MAP TEAM :

Programmation & Développement : Alexandra Zaïnal
Sur une idée originale de : Baudouin d'Aumeries
Assistance à la programmation : Marc-Olivier Méhu
Soutien technique & logistique : Manuel Goepfert

Contact : metmap@orbifly.com




SOURCES & CREDITS :

   NOAA